sensor_id;sensor_type;location;lat;lon;timestamp;temperature;humidity
21834;DHT22;11079;51.092;3.458;2024-03-06T00:01:34;9.00;99.90
21834;DHT22;11079;51.092;3.458;2024-03-06T00:04:02;9.10;99.90
21834;DHT22;11079;51.092;3.458;2024-03-06T00:06:29;9.10;99.90
21834;DHT22;11079;51.092;3.458;2024-03-06T00:08:56;9.10;99.90
21834;DHT22;11079;51.092;3.458;2024-03-06T00:11:21;9.10;99.90
21834;DHT22;11079;51.092;3.458;2024-03-06T00:13:47;9.20;99.90
21834;DHT22;11079;51.092;3.458;2024-03-06T00:16:13;9.20;99.90
21834;DHT22;11079;51.092;3.458;2024-03-06T00:18:39;9.10;99.90
21834;DHT22;11079;51.092;3.458;2024-03-06T00:21:05;9.20;99.90
21834;DHT22;11079;51.092;3.458;2024-03-06T00:23:32;9.10;99.90
21834;DHT22;11079;51.092;3.458;2024-03-06T00:25:57;9.20;99.90
21834;DHT22;11079;51.092;3.458;2024-03-06T00:28:23;9.20;99.90
21834;DHT22;11079;51.092;3.458;2024-03-06T00:30:49;9.00;99.90
21834;DHT22;11079;51.092;3.458;2024-03-06T00:33:15;9.00;99.90
21834;DHT22;11079;51.092;3.458;2024-03-06T00:35:41;9.00;99.90
21834;DHT22;11079;51.092;3.458;2024-03-06T00:38:06;9.00;99.90
21834;DHT22;11079;51.092;3.458;2024-03-06T00:40:32;9.00;99.90
21834;DHT22;11079;51.092;3.458;2024-03-06T00:42:58;8.90;99.90
21834;DHT22;11079;51.092;3.458;2024-03-06T00:45:24;9.00;99.90
21834;DHT22;11079;51.092;3.458;2024-03-06T00:47:50;9.00;99.90
21834;DHT22;11079;51.092;3.458;2024-03-06T00:50:15;8.90;99.90
21834;DHT22;11079;51.092;3.458;2024-03-06T00:52:43;8.90;99.90
21834;DHT22;11079;51.092;3.458;2024-03-06T00:55:09;8.80;99.90
21834;DHT22;11079;51.092;3.458;2024-03-06T00:57:35;8.80;99.90
21834;DHT22;11079;51.092;3.458;2024-03-06T01:00:02;8.90;99.90
21834;DHT22;11079;51.092;3.458;2024-03-06T01:02:31;8.90;99.90
21834;DHT22;11079;51.092;3.458;2024-03-06T01:04:57;9.00;99.90
21834;DHT22;11079;51.092;3.458;2024-03-06T01:07:22;8.90;99.90
21834;DHT22;11079;51.092;3.458;2024-03-06T01:09:48;8.90;99.90
21834;DHT22;11079;51.092;3.458;2024-03-06T01:12:15;8.80;99.90
21834;DHT22;11079;51.092;3.458;2024-03-06T01:14:41;8.70;99.90
21834;DHT22;11079;51.092;3.458;2024-03-06T01:17:07;8.80;99.90
21834;DHT22;11079;51.092;3.458;2024-03-06T01:19:33;8.80;99.90
21834;DHT22;11079;51.092;3.458;2024-03-06T01:21:59;8.70;99.90
21834;DHT22;11079;51.092;3.458;2024-03-06T01:24:24;8.80;99.90
21834;DHT22;11079;51.092;3.458;2024-03-06T01:26:50;8.70;99.90
21834;DHT22;11079;51.092;3.458;2024-03-06T01:29:15;8.70;99.90
21834;DHT22;11079;51.092;3.458;2024-03-06T01:31:42;8.60;99.90
21834;DHT22;11079;51.092;3.458;2024-03-06T01:34:07;8.60;99.90
21834;DHT22;11079;51.092;3.458;2024-03-06T01:36:33;8.60;99.90
21834;DHT22;11079;51.092;3.458;2024-03-06T01:38:58;8.80;99.90
21834;DHT22;11079;51.092;3.458;2024-03-06T01:41:24;8.80;99.90
21834;DHT22;11079;51.092;3.458;2024-03-06T01:43:50;8.80;99.90
21834;DHT22;11079;51.092;3.458;2024-03-06T01:46:16;8.70;99.90
21834;DHT22;11079;51.092;3.458;2024-03-06T01:48:41;8.70;99.90
21834;DHT22;11079;51.092;3.458;2024-03-06T01:51:08;8.70;99.90
21834;DHT22;11079;51.092;3.458;2024-03-06T01:53:35;8.70;99.90
21834;DHT22;11079;51.092;3.458;2024-03-06T01:56:02;8.70;99.90
21834;DHT22;11079;51.092;3.458;2024-03-06T01:58:29;8.60;99.90
21834;DHT22;11079;51.092;3.458;2024-03-06T02:00:56;8.60;99.90
21834;DHT22;11079;51.092;3.458;2024-03-06T02:03:22;8.40;99.90
21834;DHT22;11079;51.092;3.458;2024-03-06T02:05:51;8.40;99.90
21834;DHT22;11079;51.092;3.458;2024-03-06T02:08:18;8.40;99.90
21834;DHT22;11079;51.092;3.458;2024-03-06T02:10:46;8.40;99.90
21834;DHT22;11079;51.092;3.458;2024-03-06T02:13:15;8.60;99.90
21834;DHT22;11079;51.092;3.458;2024-03-06T02:15:41;8.40;99.90
21834;DHT22;11079;51.092;3.458;2024-03-06T02:18:07;8.30;99.90
21834;DHT22;11079;51.092;3.458;2024-03-06T02:20:34;8.40;99.90
21834;DHT22;11079;51.092;3.458;2024-03-06T02:23:00;8.40;99.90
21834;DHT22;11079;51.092;3.458;2024-03-06T02:25:25;8.30;99.90
21834;DHT22;11079;51.092;3.458;2024-03-06T02:27:51;8.30;99.90
21834;DHT22;11079;51.092;3.458;2024-03-06T02:30:20;8.30;99.90
21834;DHT22;11079;51.092;3.458;2024-03-06T02:32:46;8.30;99.90
21834;DHT22;11079;51.092;3.458;2024-03-06T02:35:12;8.20;99.90
21834;DHT22;11079;51.092;3.458;2024-03-06T02:37:40;8.10;99.90
21834;DHT22;11079;51.092;3.458;2024-03-06T02:40:07;8.00;99.90
21834;DHT22;11079;51.092;3.458;2024-03-06T02:42:35;8.20;99.90
21834;DHT22;11079;51.092;3.458;2024-03-06T02:45:05;8.20;99.90
21834;DHT22;11079;51.092;3.458;2024-03-06T02:47:30;8.10;99.90
21834;DHT22;11079;51.092;3.458;2024-03-06T02:49:56;8.10;99.90
21834;DHT22;11079;51.092;3.458;2024-03-06T02:52:21;8.10;99.90
21834;DHT22;11079;51.092;3.458;2024-03-06T02:54:47;7.90;99.90
21834;DHT22;11079;51.092;3.458;2024-03-06T02:57:13;7.90;99.90
21834;DHT22;11079;51.092;3.458;2024-03-06T02:59:43;7.90;99.90
21834;DHT22;11079;51.092;3.458;2024-03-06T03:02:08;7.80;99.90
21834;DHT22;11079;51.092;3.458;2024-03-06T03:04:34;7.80;99.90
21834;DHT22;11079;51.092;3.458;2024-03-06T03:07:00;7.80;99.90
21834;DHT22;11079;51.092;3.458;2024-03-06T03:09:25;7.60;99.90
21834;DHT22;11079;51.092;3.458;2024-03-06T03:11:51;7.60;99.90
21834;DHT22;11079;51.092;3.458;2024-03-06T03:14:16;7.70;99.90
21834;DHT22;11079;51.092;3.458;2024-03-06T03:16:44;7.80;99.90
21834;DHT22;11079;51.092;3.458;2024-03-06T03:19:09;7.70;99.90
21834;DHT22;11079;51.092;3.458;2024-03-06T03:21:35;7.80;99.90
21834;DHT22;11079;51.092;3.458;2024-03-06T03:24:01;7.90;99.90
21834;DHT22;11079;51.092;3.458;2024-03-06T03:26:26;7.80;99.90
21834;DHT22;11079;51.092;3.458;2024-03-06T03:28:52;7.80;99.90
21834;DHT22;11079;51.092;3.458;2024-03-06T03:31:17;7.70;99.90
21834;DHT22;11079;51.092;3.458;2024-03-06T03:33:43;7.70;99.90
21834;DHT22;11079;51.092;3.458;2024-03-06T03:36:09;7.60;99.90
21834;DHT22;11079;51.092;3.458;2024-03-06T03:38:38;7.80;99.90
21834;DHT22;11079;51.092;3.458;2024-03-06T03:41:10;7.90;99.90
21834;DHT22;11079;51.092;3.458;2024-03-06T03:43:38;7.80;99.90
21834;DHT22;11079;51.092;3.458;2024-03-06T03:46:04;7.80;99.90
21834;DHT22;11079;51.092;3.458;2024-03-06T03:48:31;7.80;99.90
21834;DHT22;11079;51.092;3.458;2024-03-06T03:50:56;7.70;99.90
21834;DHT22;11079;51.092;3.458;2024-03-06T03:53:22;7.60;99.90
21834;DHT22;11079;51.092;3.458;2024-03-06T03:55:47;7.60;99.90
21834;DHT22;11079;51.092;3.458;2024-03-06T03:58:13;7.60;99.90
21834;DHT22;11079;51.092;3.458;2024-03-06T04:00:38;7.70;99.90
21834;DHT22;11079;51.092;3.458;2024-03-06T04:03:04;7.70;99.90
21834;DHT22;11079;51.092;3.458;2024-03-06T04:05:31;8.00;99.90
21834;DHT22;11079;51.092;3.458;2024-03-06T04:07:57;8.00;99.90
21834;DHT22;11079;51.092;3.458;2024-03-06T04:10:22;8.00;99.90
21834;DHT22;11079;51.092;3.458;2024-03-06T04:12:48;7.90;99.90
21834;DHT22;11079;51.092;3.458;2024-03-06T04:15:14;7.90;99.90
21834;DHT22;11079;51.092;3.458;2024-03-06T04:17:40;8.00;99.90
21834;DHT22;11079;51.092;3.458;2024-03-06T04:20:06;8.10;99.90
21834;DHT22;11079;51.092;3.458;2024-03-06T04:22:33;8.00;99.90
21834;DHT22;11079;51.092;3.458;2024-03-06T04:24:58;8.10;99.90
21834;DHT22;11079;51.092;3.458;2024-03-06T04:27:24;8.10;99.90
21834;DHT22;11079;51.092;3.458;2024-03-06T04:29:51;8.10;99.90
21834;DHT22;11079;51.092;3.458;2024-03-06T04:32:18;8.20;99.90
21834;DHT22;11079;51.092;3.458;2024-03-06T04:34:43;8.30;99.90
21834;DHT22;11079;51.092;3.458;2024-03-06T04:37:09;8.40;99.90
21834;DHT22;11079;51.092;3.458;2024-03-06T04:39:34;8.40;99.90
21834;DHT22;11079;51.092;3.458;2024-03-06T04:42:00;8.10;99.90
21834;DHT22;11079;51.092;3.458;2024-03-06T04:44:26;8.30;99.90
21834;DHT22;11079;51.092;3.458;2024-03-06T04:46:51;8.50;99.90
21834;DHT22;11079;51.092;3.458;2024-03-06T04:49:17;8.50;99.90
21834;DHT22;11079;51.092;3.458;2024-03-06T04:51:42;8.50;99.90
21834;DHT22;11079;51.092;3.458;2024-03-06T04:54:08;8.50;99.90
21834;DHT22;11079;51.092;3.458;2024-03-06T04:56:34;8.60;99.90
21834;DHT22;11079;51.092;3.458;2024-03-06T04:59:00;8.70;99.90
21834;DHT22;11079;51.092;3.458;2024-03-06T05:01:29;8.70;99.90
21834;DHT22;11079;51.092;3.458;2024-03-06T05:03:55;8.70;99.90
21834;DHT22;11079;51.092;3.458;2024-03-06T05:06:21;8.70;99.90
21834;DHT22;11079;51.092;3.458;2024-03-06T05:08:47;8.70;99.90
21834;DHT22;11079;51.092;3.458;2024-03-06T05:11:13;8.50;99.90
21834;DHT22;11079;51.092;3.458;2024-03-06T05:13:38;8.40;99.90
21834;DHT22;11079;51.092;3.458;2024-03-06T05:16:05;8.20;99.90
21834;DHT22;11079;51.092;3.458;2024-03-06T05:18:30;8.10;99.90
21834;DHT22;11079;51.092;3.458;2024-03-06T05:20:56;8.20;99.90
21834;DHT22;11079;51.092;3.458;2024-03-06T05:23:22;8.30;99.90
21834;DHT22;11079;51.092;3.458;2024-03-06T05:25:48;8.20;99.90
21834;DHT22;11079;51.092;3.458;2024-03-06T05:28:14;8.20;99.90
21834;DHT22;11079;51.092;3.458;2024-03-06T05:30:39;8.10;99.90
21834;DHT22;11079;51.092;3.458;2024-03-06T05:33:05;7.90;99.90
21834;DHT22;11079;51.092;3.458;2024-03-06T05:35:31;8.10;99.90
21834;DHT22;11079;51.092;3.458;2024-03-06T05:37:56;8.10;99.90
21834;DHT22;11079;51.092;3.458;2024-03-06T05:40:22;8.00;99.90
21834;DHT22;11079;51.092;3.458;2024-03-06T05:42:48;7.90;99.90
21834;DHT22;11079;51.092;3.458;2024-03-06T05:45:13;7.90;99.90
21834;DHT22;11079;51.092;3.458;2024-03-06T05:47:39;7.90;99.90
21834;DHT22;11079;51.092;3.458;2024-03-06T05:50:06;8.00;99.90
21834;DHT22;11079;51.092;3.458;2024-03-06T05:52:32;8.10;99.90
21834;DHT22;11079;51.092;3.458;2024-03-06T05:54:58;8.20;99.90
21834;DHT22;11079;51.092;3.458;2024-03-06T05:57:23;8.20;99.90
21834;DHT22;11079;51.092;3.458;2024-03-06T05:59:50;8.00;99.90
21834;DHT22;11079;51.092;3.458;2024-03-06T06:02:16;8.20;99.90
21834;DHT22;11079;51.092;3.458;2024-03-06T06:04:42;8.00;99.90
21834;DHT22;11079;51.092;3.458;2024-03-06T06:07:08;7.90;99.90
21834;DHT22;11079;51.092;3.458;2024-03-06T06:09:33;7.80;99.90
21834;DHT22;11079;51.092;3.458;2024-03-06T06:11:59;7.70;99.90
21834;DHT22;11079;51.092;3.458;2024-03-06T06:14:25;7.80;99.90
21834;DHT22;11079;51.092;3.458;2024-03-06T06:16:52;7.80;99.90
21834;DHT22;11079;51.092;3.458;2024-03-06T06:19:18;8.00;99.90
21834;DHT22;11079;51.092;3.458;2024-03-06T06:21:43;8.10;99.90
21834;DHT22;11079;51.092;3.458;2024-03-06T06:24:09;8.30;99.90
21834;DHT22;11079;51.092;3.458;2024-03-06T06:26:35;8.20;99.90
21834;DHT22;11079;51.092;3.458;2024-03-06T06:29:00;8.10;99.90
21834;DHT22;11079;51.092;3.458;2024-03-06T06:31:26;7.70;99.90
21834;DHT22;11079;51.092;3.458;2024-03-06T06:33:53;7.70;99.90
21834;DHT22;11079;51.092;3.458;2024-03-06T06:36:18;7.60;99.90
21834;DHT22;11079;51.092;3.458;2024-03-06T06:38:46;7.50;99.90
21834;DHT22;11079;51.092;3.458;2024-03-06T06:41:11;7.30;99.90
21834;DHT22;11079;51.092;3.458;2024-03-06T06:43:37;7.30;99.90
21834;DHT22;11079;51.092;3.458;2024-03-06T06:46:04;7.40;99.90
21834;DHT22;11079;51.092;3.458;2024-03-06T06:48:31;7.50;99.90
21834;DHT22;11079;51.092;3.458;2024-03-06T06:50:59;7.60;99.90
21834;DHT22;11079;51.092;3.458;2024-03-06T06:53:26;7.70;99.90
21834;DHT22;11079;51.092;3.458;2024-03-06T06:55:51;7.70;99.90
21834;DHT22;11079;51.092;3.458;2024-03-06T06:58:17;7.80;99.90
21834;DHT22;11079;51.092;3.458;2024-03-06T07:00:43;7.70;99.90
21834;DHT22;11079;51.092;3.458;2024-03-06T07:03:08;7.60;99.90
21834;DHT22;11079;51.092;3.458;2024-03-06T07:05:34;7.60;99.90
21834;DHT22;11079;51.092;3.458;2024-03-06T07:08:00;7.60;99.90
21834;DHT22;11079;51.092;3.458;2024-03-06T07:10:25;7.70;99.90
21834;DHT22;11079;51.092;3.458;2024-03-06T07:12:51;7.80;99.90
21834;DHT22;11079;51.092;3.458;2024-03-06T07:15:17;7.90;99.90
21834;DHT22;11079;51.092;3.458;2024-03-06T07:17:43;7.80;99.90
21834;DHT22;11079;51.092;3.458;2024-03-06T07:20:09;7.80;99.90
21834;DHT22;11079;51.092;3.458;2024-03-06T07:22:35;7.80;99.90
21834;DHT22;11079;51.092;3.458;2024-03-06T07:25:01;7.90;99.90
21834;DHT22;11079;51.092;3.458;2024-03-06T07:27:27;7.80;99.90
21834;DHT22;11079;51.092;3.458;2024-03-06T07:29:53;7.80;99.90
21834;DHT22;11079;51.092;3.458;2024-03-06T07:32:19;7.80;99.90
21834;DHT22;11079;51.092;3.458;2024-03-06T07:34:45;7.80;99.90
21834;DHT22;11079;51.092;3.458;2024-03-06T07:37:11;7.70;99.90
21834;DHT22;11079;51.092;3.458;2024-03-06T07:39:37;7.90;99.90
21834;DHT22;11079;51.092;3.458;2024-03-06T07:42:02;8.00;99.90
21834;DHT22;11079;51.092;3.458;2024-03-06T07:44:28;8.10;99.90
21834;DHT22;11079;51.092;3.458;2024-03-06T07:46:54;8.00;99.90
21834;DHT22;11079;51.092;3.458;2024-03-06T07:49:20;8.00;99.90
21834;DHT22;11079;51.092;3.458;2024-03-06T07:51:47;7.70;99.90
21834;DHT22;11079;51.092;3.458;2024-03-06T07:54:13;7.80;99.90
21834;DHT22;11079;51.092;3.458;2024-03-06T07:56:39;7.90;99.90
21834;DHT22;11079;51.092;3.458;2024-03-06T07:59:04;7.90;99.90
21834;DHT22;11079;51.092;3.458;2024-03-06T08:01:30;7.90;99.90
21834;DHT22;11079;51.092;3.458;2024-03-06T08:03:57;8.00;99.90
21834;DHT22;11079;51.092;3.458;2024-03-06T08:06:23;8.20;99.90
21834;DHT22;11079;51.092;3.458;2024-03-06T08:08:48;8.20;99.90
21834;DHT22;11079;51.092;3.458;2024-03-06T08:11:14;8.20;99.90
21834;DHT22;11079;51.092;3.458;2024-03-06T08:13:40;8.40;99.90
21834;DHT22;11079;51.092;3.458;2024-03-06T08:16:07;8.40;99.90
21834;DHT22;11079;51.092;3.458;2024-03-06T08:18:34;8.50;99.90
21834;DHT22;11079;51.092;3.458;2024-03-06T08:21:00;8.50;99.90
21834;DHT22;11079;51.092;3.458;2024-03-06T08:23:26;8.40;99.90
21834;DHT22;11079;51.092;3.458;2024-03-06T08:25:52;8.50;99.90
21834;DHT22;11079;51.092;3.458;2024-03-06T08:28:21;8.50;99.90
21834;DHT22;11079;51.092;3.458;2024-03-06T08:30:46;8.40;99.90
21834;DHT22;11079;51.092;3.458;2024-03-06T08:33:12;8.50;99.90
21834;DHT22;11079;51.092;3.458;2024-03-06T08:35:38;8.60;99.90
21834;DHT22;11079;51.092;3.458;2024-03-06T08:38:04;8.70;99.90
21834;DHT22;11079;51.092;3.458;2024-03-06T08:40:31;8.60;99.90
21834;DHT22;11079;51.092;3.458;2024-03-06T08:42:57;8.80;99.90
21834;DHT22;11079;51.092;3.458;2024-03-06T08:45:23;9.00;99.90
21834;DHT22;11079;51.092;3.458;2024-03-06T08:47:49;9.20;99.90
21834;DHT22;11079;51.092;3.458;2024-03-06T08:50:15;9.10;99.90
21834;DHT22;11079;51.092;3.458;2024-03-06T08:52:41;8.90;99.90
21834;DHT22;11079;51.092;3.458;2024-03-06T08:55:07;9.10;99.90
21834;DHT22;11079;51.092;3.458;2024-03-06T08:57:37;9.20;99.90
21834;DHT22;11079;51.092;3.458;2024-03-06T09:00:04;9.20;99.90
21834;DHT22;11079;51.092;3.458;2024-03-06T09:02:29;9.40;99.90
21834;DHT22;11079;51.092;3.458;2024-03-06T09:04:56;9.50;99.90
21834;DHT22;11079;51.092;3.458;2024-03-06T09:07:22;9.40;99.90
21834;DHT22;11079;51.092;3.458;2024-03-06T09:09:49;9.50;99.90
21834;DHT22;11079;51.092;3.458;2024-03-06T09:12:15;9.40;99.90
21834;DHT22;11079;51.092;3.458;2024-03-06T09:14:41;9.60;99.90
21834;DHT22;11079;51.092;3.458;2024-03-06T09:17:07;9.70;99.90
21834;DHT22;11079;51.092;3.458;2024-03-06T09:19:36;9.90;99.90
21834;DHT22;11079;51.092;3.458;2024-03-06T09:22:01;10.10;99.90
21834;DHT22;11079;51.092;3.458;2024-03-06T09:24:28;10.40;99.90
21834;DHT22;11079;51.092;3.458;2024-03-06T09:26:54;10.50;99.90
21834;DHT22;11079;51.092;3.458;2024-03-06T09:29:20;10.90;99.90
21834;DHT22;11079;51.092;3.458;2024-03-06T09:31:47;11.20;99.90
21834;DHT22;11079;51.092;3.458;2024-03-06T09:34:14;11.10;99.90
21834;DHT22;11079;51.092;3.458;2024-03-06T09:36:41;11.00;99.90
21834;DHT22;11079;51.092;3.458;2024-03-06T09:39:10;10.90;99.90
21834;DHT22;11079;51.092;3.458;2024-03-06T09:41:36;10.90;99.90
21834;DHT22;11079;51.092;3.458;2024-03-06T09:44:02;10.80;99.90
21834;DHT22;11079;51.092;3.458;2024-03-06T09:46:28;10.80;99.90
21834;DHT22;11079;51.092;3.458;2024-03-06T09:48:55;11.10;99.90
21834;DHT22;11079;51.092;3.458;2024-03-06T09:51:21;11.70;99.90
21834;DHT22;11079;51.092;3.458;2024-03-06T09:53:48;12.20;99.90
21834;DHT22;11079;51.092;3.458;2024-03-06T09:56:17;12.40;99.90
21834;DHT22;11079;51.092;3.458;2024-03-06T09:58:45;12.60;99.90
21834;DHT22;11079;51.092;3.458;2024-03-06T10:01:12;14.90;99.90
21834;DHT22;11079;51.092;3.458;2024-03-06T10:03:38;18.30;99.90
21834;DHT22;11079;51.092;3.458;2024-03-06T10:06:06;20.40;99.90
21834;DHT22;11079;51.092;3.458;2024-03-06T10:08:33;21.00;99.90
21834;DHT22;11079;51.092;3.458;2024-03-06T10:10:59;20.10;99.90
21834;DHT22;11079;51.092;3.458;2024-03-06T10:13:25;20.30;99.90
21834;DHT22;11079;51.092;3.458;2024-03-06T10:15:59;21.40;99.90
21834;DHT22;11079;51.092;3.458;2024-03-06T10:18:29;23.00;99.90
21834;DHT22;11079;51.092;3.458;2024-03-06T10:20:55;24.40;99.90
21834;DHT22;11079;51.092;3.458;2024-03-06T10:23:21;25.40;99.90
21834;DHT22;11079;51.092;3.458;2024-03-06T10:25:48;26.90;99.90
21834;DHT22;11079;51.092;3.458;2024-03-06T10:28:19;28.10;98.10
21834;DHT22;11079;51.092;3.458;2024-03-06T10:30:45;28.90;93.30
21834;DHT22;11079;51.092;3.458;2024-03-06T10:33:12;29.90;89.30
21834;DHT22;11079;51.092;3.458;2024-03-06T10:35:40;28.80;83.90
21834;DHT22;11079;51.092;3.458;2024-03-06T10:38:07;27.00;84.70
21834;DHT22;11079;51.092;3.458;2024-03-06T10:40:38;26.80;88.10
21834;DHT22;11079;51.092;3.458;2024-03-06T10:43:05;27.40;87.10
21834;DHT22;11079;51.092;3.458;2024-03-06T10:45:41;27.60;86.00
21834;DHT22;11079;51.092;3.458;2024-03-06T10:48:09;28.50;85.80
21834;DHT22;11079;51.092;3.458;2024-03-06T10:50:39;29.20;79.70
21834;DHT22;11079;51.092;3.458;2024-03-06T10:53:09;29.20;77.30
21834;DHT22;11079;51.092;3.458;2024-03-06T10:55:36;26.30;79.60
21834;DHT22;11079;51.092;3.458;2024-03-06T10:58:06;24.60;85.10
21834;DHT22;11079;51.092;3.458;2024-03-06T11:00:43;22.20;92.00
21834;DHT22;11079;51.092;3.458;2024-03-06T11:03:11;20.50;97.50
21834;DHT22;11079;51.092;3.458;2024-03-06T11:05:38;19.90;99.90
21834;DHT22;11079;51.092;3.458;2024-03-06T11:08:15;20.30;99.90
21834;DHT22;11079;51.092;3.458;2024-03-06T11:10:42;20.40;99.90
21834;DHT22;11079;51.092;3.458;2024-03-06T11:15:50;19.10;99.90
21834;DHT22;11079;51.092;3.458;2024-03-06T11:23:30;20.90;99.90
21834;DHT22;11079;51.092;3.458;2024-03-06T11:26:05;22.00;99.90
21834;DHT22;11079;51.092;3.458;2024-03-06T11:28:32;23.60;98.20
21834;DHT22;11079;51.092;3.458;2024-03-06T11:31:01;23.70;97.70
21834;DHT22;11079;51.092;3.458;2024-03-06T11:33:44;25.10;94.70
21834;DHT22;11079;51.092;3.458;2024-03-06T11:36:23;26.20;90.10
21834;DHT22;11079;51.092;3.458;2024-03-06T11:39:06;25.70;89.00
21834;DHT22;11079;51.092;3.458;2024-03-06T11:41:47;25.50;89.30
21834;DHT22;11079;51.092;3.458;2024-03-06T11:44:15;24.00;91.70
21834;DHT22;11079;51.092;3.458;2024-03-06T11:46:57;23.10;92.10
21834;DHT22;11079;51.092;3.458;2024-03-06T11:49:25;22.10;94.40
21834;DHT22;11079;51.092;3.458;2024-03-06T11:51:52;21.80;95.00
21834;DHT22;11079;51.092;3.458;2024-03-06T11:54:18;21.10;95.90
21834;DHT22;11079;51.092;3.458;2024-03-06T11:56:49;22.00;96.50
21834;DHT22;11079;51.092;3.458;2024-03-06T11:59:17;24.50;92.50
21834;DHT22;11079;51.092;3.458;2024-03-06T12:01:43;24.60;90.90
21834;DHT22;11079;51.092;3.458;2024-03-06T12:04:08;24.90;91.40
21834;DHT22;11079;51.092;3.458;2024-03-06T12:06:34;26.10;87.20
21834;DHT22;11079;51.092;3.458;2024-03-06T12:09:00;27.10;80.50
21834;DHT22;11079;51.092;3.458;2024-03-06T12:11:26;26.40;79.80
21834;DHT22;11079;51.092;3.458;2024-03-06T12:13:53;26.90;78.40
21834;DHT22;11079;51.092;3.458;2024-03-06T12:16:19;27.80;77.80
21834;DHT22;11079;51.092;3.458;2024-03-06T12:18:45;28.40;73.10
21834;DHT22;11079;51.092;3.458;2024-03-06T12:21:11;28.00;72.10
21834;DHT22;11079;51.092;3.458;2024-03-06T12:23:39;27.80;72.30
21834;DHT22;11079;51.092;3.458;2024-03-06T12:26:09;28.10;71.00
21834;DHT22;11079;51.092;3.458;2024-03-06T12:28:37;27.60;70.00
21834;DHT22;11079;51.092;3.458;2024-03-06T12:31:05;27.80;72.50
21834;DHT22;11079;51.092;3.458;2024-03-06T12:33:32;27.40;68.50
21834;DHT22;11079;51.092;3.458;2024-03-06T12:36:07;26.70;71.60
21834;DHT22;11079;51.092;3.458;2024-03-06T12:38:36;26.00;71.10
21834;DHT22;11079;51.092;3.458;2024-03-06T12:41:02;25.60;73.40
21834;DHT22;11079;51.092;3.458;2024-03-06T12:43:28;26.30;72.20
21834;DHT22;11079;51.092;3.458;2024-03-06T12:45:54;26.40;71.30
21834;DHT22;11079;51.092;3.458;2024-03-06T12:48:22;24.60;74.00
21834;DHT22;11079;51.092;3.458;2024-03-06T12:50:48;23.60;75.30
21834;DHT22;11079;51.092;3.458;2024-03-06T12:53:21;22.70;80.10
21834;DHT22;11079;51.092;3.458;2024-03-06T12:55:47;22.20;83.20
21834;DHT22;11079;51.092;3.458;2024-03-06T12:58:13;21.70;85.70
21834;DHT22;11079;51.092;3.458;2024-03-06T13:00:39;21.00;88.00
21834;DHT22;11079;51.092;3.458;2024-03-06T13:03:05;20.60;90.10
21834;DHT22;11079;51.092;3.458;2024-03-06T13:05:31;20.00;91.60
21834;DHT22;11079;51.092;3.458;2024-03-06T13:07:57;19.80;92.80
21834;DHT22;11079;51.092;3.458;2024-03-06T13:10:25;20.10;95.40
21834;DHT22;11079;51.092;3.458;2024-03-06T13:12:51;21.50;93.80
21834;DHT22;11079;51.092;3.458;2024-03-06T13:15:16;22.30;90.10
21834;DHT22;11079;51.092;3.458;2024-03-06T13:17:42;22.00;88.10
21834;DHT22;11079;51.092;3.458;2024-03-06T13:20:08;21.20;90.40
21834;DHT22;11079;51.092;3.458;2024-03-06T13:22:35;20.60;91.70
21834;DHT22;11079;51.092;3.458;2024-03-06T13:25:00;19.90;92.90
21834;DHT22;11079;51.092;3.458;2024-03-06T13:27:26;19.70;94.70
21834;DHT22;11079;51.092;3.458;2024-03-06T13:29:52;19.50;94.30
21834;DHT22;11079;51.092;3.458;2024-03-06T13:32:18;18.70;96.20
21834;DHT22;11079;51.092;3.458;2024-03-06T13:34:44;18.40;97.20
21834;DHT22;11079;51.092;3.458;2024-03-06T13:37:09;17.90;98.60
21834;DHT22;11079;51.092;3.458;2024-03-06T13:39:36;17.60;99.90
21834;DHT22;11079;51.092;3.458;2024-03-06T13:42:01;17.40;99.90
21834;DHT22;11079;51.092;3.458;2024-03-06T13:44:27;17.00;99.90
21834;DHT22;11079;51.092;3.458;2024-03-06T13:46:53;16.80;99.90
21834;DHT22;11079;51.092;3.458;2024-03-06T13:49:39;16.70;99.90
21834;DHT22;11079;51.092;3.458;2024-03-06T13:52:05;16.60;99.90
21834;DHT22;11079;51.092;3.458;2024-03-06T13:54:37;17.00;99.90
21834;DHT22;11079;51.092;3.458;2024-03-06T13:57:03;18.60;99.90
21834;DHT22;11079;51.092;3.458;2024-03-06T13:59:33;19.40;99.90
21834;DHT22;11079;51.092;3.458;2024-03-06T14:01:59;21.10;97.00
21834;DHT22;11079;51.092;3.458;2024-03-06T14:04:25;21.40;95.70
21834;DHT22;11079;51.092;3.458;2024-03-06T14:06:51;21.90;94.90
21834;DHT22;11079;51.092;3.458;2024-03-06T14:09:17;21.40;93.90
21834;DHT22;11079;51.092;3.458;2024-03-06T14:11:43;22.40;94.70
21834;DHT22;11079;51.092;3.458;2024-03-06T14:14:09;23.30;92.90
21834;DHT22;11079;51.092;3.458;2024-03-06T14:16:35;24.30;88.40
21834;DHT22;11079;51.092;3.458;2024-03-06T14:19:01;24.90;86.50
21834;DHT22;11079;51.092;3.458;2024-03-06T14:21:26;25.60;83.90
21834;DHT22;11079;51.092;3.458;2024-03-06T14:23:52;26.10;84.80
21834;DHT22;11079;51.092;3.458;2024-03-06T14:26:18;26.20;79.90
21834;DHT22;11079;51.092;3.458;2024-03-06T14:28:43;26.70;79.60
21834;DHT22;11079;51.092;3.458;2024-03-06T14:31:09;26.70;75.20
21834;DHT22;11079;51.092;3.458;2024-03-06T14:33:37;26.30;69.80
21834;DHT22;11079;51.092;3.458;2024-03-06T14:36:04;25.80;67.80
21834;DHT22;11079;51.092;3.458;2024-03-06T14:38:29;25.20;66.40
21834;DHT22;11079;51.092;3.458;2024-03-06T14:40:55;24.60;67.10
21834;DHT22;11079;51.092;3.458;2024-03-06T14:43:21;23.70;68.60
21834;DHT22;11079;51.092;3.458;2024-03-06T14:45:46;23.30;70.50
21834;DHT22;11079;51.092;3.458;2024-03-06T14:48:12;23.00;76.30
21834;DHT22;11079;51.092;3.458;2024-03-06T14:50:37;22.70;76.60
21834;DHT22;11079;51.092;3.458;2024-03-06T14:53:03;22.40;76.40
21834;DHT22;11079;51.092;3.458;2024-03-06T14:55:30;21.70;77.70
21834;DHT22;11079;51.092;3.458;2024-03-06T14:57:56;21.90;78.90
21834;DHT22;11079;51.092;3.458;2024-03-06T15:00:22;21.70;80.70
21834;DHT22;11079;51.092;3.458;2024-03-06T15:02:48;22.10;79.50
21834;DHT22;11079;51.092;3.458;2024-03-06T15:05:14;22.20;77.30
21834;DHT22;11079;51.092;3.458;2024-03-06T15:07:40;22.80;76.00
21834;DHT22;11079;51.092;3.458;2024-03-06T15:10:06;23.10;74.00
21834;DHT22;11079;51.092;3.458;2024-03-06T15:12:33;22.90;76.00
21834;DHT22;11079;51.092;3.458;2024-03-06T15:15:01;22.60;74.70
21834;DHT22;11079;51.092;3.458;2024-03-06T15:17:28;21.50;77.40
21834;DHT22;11079;51.092;3.458;2024-03-06T15:19:53;20.90;79.70
21834;DHT22;11079;51.092;3.458;2024-03-06T15:22:19;21.20;81.90
21834;DHT22;11079;51.092;3.458;2024-03-06T15:24:45;20.40;81.30
21834;DHT22;11079;51.092;3.458;2024-03-06T15:27:11;20.30;83.60
21834;DHT22;11079;51.092;3.458;2024-03-06T15:29:37;20.10;84.10
21834;DHT22;11079;51.092;3.458;2024-03-06T15:32:03;20.20;84.50
21834;DHT22;11079;51.092;3.458;2024-03-06T15:34:28;20.00;84.30
21834;DHT22;11079;51.092;3.458;2024-03-06T15:36:54;19.90;85.60
21834;DHT22;11079;51.092;3.458;2024-03-06T15:39:20;19.40;84.80
21834;DHT22;11079;51.092;3.458;2024-03-06T15:41:46;18.30;87.40
21834;DHT22;11079;51.092;3.458;2024-03-06T15:44:12;17.90;90.40